Time;durP1;ratioP1;P1;durP2;ratioP2;P2;SDS_P1;SDS_P2;PMS_P1;PMS_P2;Temp;Humidity;BMP_temperature;BMP_pressure;BME280_temperature;BME280_humidity;BME280_pressure;Samples;Min_cycle;Max_cycle;Signal;HPM_P1;HPM_P2
2023/10/30 00:01:23;;;;;;;4.45;3.10;;;;;;;12.90;93.86;97160.69;5093823;28;20570;-73
2023/10/30 00:03:49;;;;;;;3.40;3.10;;;;;;;12.91;93.74;97170.38;5076392;28;20019;-72
2023/10/30 00:06:15;;;;;;;3.03;2.72;;;;;;;12.82;93.51;97172.91;5093749;28;20043;-72
2023/10/30 00:08:40;;;;;;;3.45;2.85;;;;;;;12.74;94.42;97176.19;5111945;28;20030;-72
2023/10/30 00:11:05;;;;;;;4.35;2.67;;;;;;;12.83;94.05;97185.34;5112129;28;20491;-70
2023/10/30 00:13:31;;;;;;;2.80;2.53;;;;;;;12.76;93.73;97165.13;5079792;28;20031;-70
2023/10/30 00:15:56;;;;;;;3.58;2.70;;;;;;;12.77;93.74;97169.41;5097800;28;20505;-69
2023/10/30 00:18:22;;;;;;;5.53;3.60;;;;;;;12.85;93.64;97187.75;5082147;28;20024;-71
2023/10/30 00:20:47;;;;;;;4.30;2.58;;;;;;;12.84;93.74;97194.22;5086037;28;20533;-70
2023/10/30 00:23:12;;;;;;;3.60;3.10;;;;;;;12.88;93.65;97195.28;5101653;28;20016;-70
2023/10/30 00:25:38;;;;;;;3.90;3.00;;;;;;;12.86;93.76;97210.97;5107188;28;20043;-71
2023/10/30 00:28:03;;;;;;;5.13;3.03;;;;;;;12.85;94.19;97212.06;5108781;28;20136;-70
2023/10/30 00:30:29;;;;;;;5.15;3.00;;;;;;;12.87;93.88;97212.56;5068697;28;20044;-70
2023/10/30 00:32:55;;;;;;;5.30;2.92;;;;;;;12.85;93.92;97190.44;5081701;28;20104;-70
2023/10/30 00:35:20;;;;;;;3.50;2.95;;;;;;;12.88;93.61;97193.38;5065143;28;20039;-70
2023/10/30 00:37:46;;;;;;;4.40;3.03;;;;;;;12.89;93.54;97196.88;5073756;28;20015;-71
2023/10/30 00:40:11;;;;;;;7.18;2.80;;;;;;;12.88;93.97;97214.22;5095250;28;20085;-71
2023/10/30 00:42:37;;;;;;;5.60;2.80;;;;;;;12.83;93.81;97233.16;5076802;28;20052;-72
2023/10/30 00:45:05;;;;;;;4.30;3.08;;;;;;;12.77;94.09;97231.56;5068011;28;20067;-72
2023/10/30 00:47:31;;;;;;;4.57;2.88;;;;;;;12.77;93.76;97234.25;5067206;28;20425;-72
2023/10/30 00:49:56;;;;;;;5.47;3.15;;;;;;;12.71;93.81;97230.81;5089097;28;20089;-72
2023/10/30 00:52:22;;;;;;;3.17;2.45;;;;;;;12.85;94.02;97258.00;5073341;28;20024;-72
2023/10/30 00:54:47;;;;;;;3.42;3.00;;;;;;;12.76;94.12;97270.50;5067529;28;20122;-72
2023/10/30 00:57:13;;;;;;;5.13;3.20;;;;;;;12.79;94.73;97275.34;5066848;28;20031;-72
2023/10/30 00:59:38;;;;;;;6.88;3.22;;;;;;;12.80;94.51;97277.75;5071733;28;20415;-71
2023/10/30 01:02:03;;;;;;;6.40;3.10;;;;;;;12.79;94.04;97269.94;5109393;28;20026;-71
2023/10/30 01:04:29;;;;;;;4.82;3.38;;;;;;;12.74;94.50;97256.47;5071683;28;20407;-71
2023/10/30 01:06:54;;;;;;;3.80;3.50;;;;;;;12.85;94.03;97279.59;5094581;28;20392;-70
2023/10/30 01:09:20;;;;;;;6.10;3.65;;;;;;;12.84;94.08;97288.78;5084324;28;20031;-72
2023/10/30 01:11:45;;;;;;;3.67;3.10;;;;;;;12.80;94.45;97276.94;5066111;28;20533;-72
2023/10/30 01:14:11;;;;;;;3.95;3.10;;;;;;;12.79;94.10;97275.34;5071740;28;20038;-72
2023/10/30 01:16:36;;;;;;;3.97;3.17;;;;;;;12.79;94.40;97259.91;5073597;28;20051;-73
2023/10/30 01:19:02;;;;;;;5.65;3.10;;;;;;;12.83;94.27;97281.78;5098816;28;20410;-74
2023/10/30 01:21:27;;;;;;;5.10;2.70;;;;;;;12.75;94.36;97282.38;5080405;28;20059;-74
2023/10/30 01:23:53;;;;;;;5.82;3.35;;;;;;;12.70;94.15;97249.97;5075642;28;20495;-74
2023/10/30 01:26:18;;;;;;;5.13;3.35;;;;;;;12.87;93.94;97272.03;5044667;28;20028;-74
2023/10/30 01:28:43;;;;;;;4.30;3.67;;;;;;;12.87;93.79;97278.25;5066375;28;20491;-72
2023/10/30 01:31:09;;;;;;;5.13;3.15;;;;;;;12.80;94.15;97274.25;5067683;28;20038;-72
2023/10/30 01:33:34;;;;;;;5.40;3.63;;;;;;;12.76;94.15;97265.09;5083883;28;20043;-75
2023/10/30 01:36:00;;;;;;;5.97;3.50;;;;;;;12.66;94.25;97238.94;5070977;28;20068;-74
2023/10/30 01:38:25;;;;;;;3.67;2.85;;;;;;;12.72;94.52;97256.72;5079582;28;20495;-75
2023/10/30 01:40:51;;;;;;;5.13;2.90;;;;;;;12.64;93.89;97224.09;5079411;28;20537;-74
2023/10/30 01:43:32;;;;;;;5.95;2.70;;;;;;;12.84;93.64;97272.56;5078951;28;20032;-75
2023/10/30 01:45:58;;;;;;;4.13;2.90;;;;;;;12.69;94.37;97261.91;5079259;28;20027;-74
2023/10/30 01:48:25;;;;;;;5.47;3.15;;;;;;;12.76;94.71;97289.41;5079413;28;20490;-75
2023/10/30 01:50:51;;;;;;;3.88;2.95;;;;;;;12.70;94.75;97263.50;5063315;28;20039;-73
2023/10/30 01:53:19;;;;;;;5.60;2.92;;;;;;;12.82;93.96;97231.53;5063529;28;20024;-76
2023/10/30 01:55:45;;;;;;;6.28;2.80;;;;;;;12.77;94.37;97234.25;5078907;28;20035;-74
2023/10/30 01:58:10;;;;;;;5.65;2.78;;;;;;;12.70;93.99;97239.19;5079262;28;20450;-73
2023/10/30 02:00:35;;;;;;;3.83;2.63;;;;;;;12.72;94.20;97242.44;5079137;28;20080;-74
2023/10/30 02:03:03;;;;;;;6.20;2.60;;;;;;;12.78;94.34;97246.69;5095974;28;20016;-73
2023/10/30 02:05:29;;;;;;;4.18;2.55;;;;;;;12.67;93.81;97218.94;5079042;28;20059;-70
2023/10/30 02:07:54;;;;;;;7.80;2.92;;;;;;;12.79;93.99;97248.31;5078897;28;20070;-74
2023/10/30 02:10:20;;;;;;;6.72;2.40;;;;;;;12.75;94.21;97247.25;5095606;28;20038;-73
2023/10/30 02:12:50;;;;;;;5.80;2.58;;;;;;;12.78;93.69;97252.09;5078612;28;20481;-71
2023/10/30 02:15:15;;;;;;;3.15;2.55;;;;;;;12.75;93.62;97258.88;5076113;28;20426;-73
2023/10/30 02:17:40;;;;;;;3.22;2.40;;;;;;;12.65;93.97;97252.75;5075467;28;20103;-73
2023/10/30 02:20:06;;;;;;;6.00;2.47;;;;;;;12.75;93.74;97263.47;5093737;28;20395;-73
2023/10/30 02:22:32;;;;;;;6.22;2.45;;;;;;;12.67;94.20;97248.66;5072235;28;20035;-74
2023/10/30 02:24:57;;;;;;;3.72;2.50;;;;;;;12.72;94.08;97258.63;5079034;28;20036;-73
2023/10/30 02:27:23;;;;;;;4.38;2.70;;;;;;;12.71;93.86;97262.41;5075332;28;20032;-73
2023/10/30 02:29:48;;;;;;;5.28;2.33;;;;;;;12.70;94.21;97261.59;5058338;28;20036;-72
2023/10/30 02:32:13;;;;;;;3.10;2.20;;;;;;;12.66;93.86;97265.16;5058230;28;20567;-75
2023/10/30 02:34:39;;;;;;;4.63;2.40;;;;;;;12.70;94.32;97271.59;5057463;28;20078;-72
2023/10/30 02:37:05;;;;;;;5.82;2.55;;;;;;;12.75;94.18;97274.28;5085233;28;20109;-71
2023/10/30 02:39:32;;;;;;;5.43;2.53;;;;;;;12.69;93.91;97265.41;5074355;28;20120;-71
2023/10/30 02:41:59;;;;;;;5.22;2.67;;;;;;;12.69;93.85;97275.41;5074365;28;20020;-72
2023/10/30 02:44:24;;;;;;;4.30;2.40;;;;;;;12.72;94.36;97283.75;5057976;28;20036;-73
2023/10/30 02:46:50;;;;;;;5.15;2.35;;;;;;;12.72;94.08;97269.44;5064480;28;20633;-72
2023/10/30 02:49:16;;;;;;;3.83;2.42;;;;;;;12.67;94.14;97266.78;5107770;28;20131;-72
2023/10/30 02:51:41;;;;;;;5.07;2.40;;;;;;;12.65;94.50;97258.94;5094708;28;20028;-70
2023/10/30 02:54:07;;;;;;;5.18;2.50;;;;;;;12.74;93.85;97278.06;5094067;28;20032;-73
2023/10/30 02:56:34;;;;;;;4.05;2.50;;;;;;;12.70;94.09;97266.19;5095613;28;20073;-73
2023/10/30 02:58:59;;;;;;;4.22;2.50;;;;;;;12.65;94.34;97258.16;5078028;28;20499;-73
2023/10/30 03:01:26;;;;;;;6.78;2.65;;;;;;;12.67;94.30;97267.56;5078344;28;20360;-71
2023/10/30 03:03:51;;;;;;;5.88;2.58;;;;;;;12.68;94.15;97254.88;5094682;28;20106;-70
2023/10/30 03:06:17;;;;;;;3.10;2.28;;;;;;;12.54;94.29;97246.59;5094955;28;20115;-71
2023/10/30 03:08:42;;;;;;;3.95;2.28;;;;;;;12.58;94.36;97225.25;5112515;28;20494;-73
2023/10/30 03:11:08;;;;;;;3.22;2.60;;;;;;;12.60;94.20;97214.97;5095066;28;20063;-72
2023/10/30 03:13:33;;;;;;;3.65;2.30;;;;;;;12.65;94.29;97225.72;5094530;28;20039;-73
2023/10/30 03:15:59;;;;;;;4.47;2.40;;;;;;;12.55;93.93;97209.59;5104113;28;20032;-72
2023/10/30 03:18:24;;;;;;;2.80;2.50;;;;;;;12.62;93.81;97210.06;5074890;28;20420;-72
2023/10/30 03:20:50;;;;;;;5.65;2.58;;;;;;;12.69;93.56;97226.78;5057602;28;20110;-71
2023/10/30 03:23:15;;;;;;;3.90;2.50;;;;;;;12.67;93.57;97240.53;5077705;28;20032;-73
2023/10/30 03:25:42;;;;;;;4.00;2.60;;;;;;;12.62;93.74;97226.28;5091640;28;20532;-72
2023/10/30 03:28:08;;;;;;;7.20;2.60;;;;;;;12.59;93.60;97226.84;5057030;28;20035;-70
2023/10/30 03:30:35;;;;;;;3.33;2.47;;;;;;;12.60;93.43;97233.88;5073672;28;20020;-72
2023/10/30 03:33:00;;;;;;;4.45;2.20;;;;;;;12.59;93.67;97232.25;5073325;28;20043;-73
2023/10/30 03:35:26;;;;;;;6.45;2.67;;;;;;;12.56;93.48;97222.00;5075344;28;20028;-71
2023/10/30 03:37:51;;;;;;;7.03;2.10;;;;;;;12.53;93.01;97209.06;5096453;28;20465;-72
2023/10/30 03:40:17;;;;;;;3.45;2.20;;;;;;;12.55;93.02;97225.78;5056841;28;20024;-72
2023/10/30 03:42:42;;;;;;;3.33;2.30;;;;;;;12.28;94.00;97205.44;5056384;28;20039;-72
2023/10/30 03:45:09;;;;;;;4.47;2.30;;;;;;;12.43;93.15;97224.25;5091646;28;20073;-71
2023/10/30 03:47:34;;;;;;;5.85;2.40;;;;;;;12.45;93.49;97224.78;5072710;28;20078;-71
2023/10/30 03:50:00;;;;;;;4.57;2.45;;;;;;;12.50;93.26;97226.63;5056937;28;20027;-72
2023/10/30 03:52:25;;;;;;;5.05;2.50;;;;;;;12.49;93.30;97233.94;5091480;28;20040;-72
2023/10/30 03:54:50;;;;;;;3.92;2.13;;;;;;;12.37;92.85;97211.03;5073015;28;20024;-72
2023/10/30 03:57:16;;;;;;;4.60;2.13;;;;;;;12.53;92.40;97227.97;5091602;28;20040;-73
2023/10/30 03:59:42;;;;;;;5.70;2.45;;;;;;;12.47;93.23;97222.59;5073484;28;20020;-73
2023/10/30 04:02:07;;;;;;;5.25;2.30;;;;;;;12.45;93.25;97218.56;5106271;28;20050;-73
2023/10/30 04:04:32;;;;;;;5.05;2.30;;;;;;;12.47;92.90;97219.09;5076429;28;20106;-71
2023/10/30 04:06:58;;;;;;;5.50;2.80;;;;;;;12.46;92.77;97223.66;5111755;28;20040;-73
2023/10/30 04:09:23;;;;;;;6.78;2.95;;;;;;;12.46;92.99;97228.28;5093716;28;20115;-72
2023/10/30 04:11:49;;;;;;;5.55;3.28;;;;;;;12.44;92.78;97220.44;5093571;28;20065;-72
2023/10/30 04:14:14;;;;;;;5.68;2.83;;;;;;;12.45;92.76;97232.88;5093273;28;20026;-72
2023/10/30 04:16:39;;;;;;;6.45;3.05;;;;;;;12.46;92.46;97234.47;5079243;28;20049;-71
2023/10/30 04:19:05;;;;;;;5.18;2.92;;;;;;;12.49;92.24;97239.31;5073461;28;20074;-72
2023/10/30 04:21:30;;;;;;;7.45;3.30;;;;;;;12.46;92.29;97234.47;5078019;28;20044;-73
2023/10/30 04:23:57;;;;;;;5.93;3.20;;;;;;;12.47;92.63;97228.00;5090882;28;20081;-72
2023/10/30 04:26:22;;;;;;;6.93;3.40;;;;;;;12.48;92.04;97216.09;5091373;28;20039;-73
2023/10/30 04:28:48;;;;;;;6.55;2.72;;;;;;;12.42;92.18;97200.22;5073475;28;20024;-73
2023/10/30 04:31:13;;;;;;;5.15;2.30;;;;;;;12.44;92.27;97204.25;5071024;28;20394;-70
2023/10/30 04:33:39;;;;;;;4.30;3.33;;;;;;;12.41;92.69;97204.00;5104297;28;20032;-69
2023/10/30 04:36:04;;;;;;;11.68;5.57;;;;;;;12.38;92.85;97210.78;5069950;28;20514;-71
2023/10/30 04:38:31;;;;;;;6.70;3.85;;;;;;;12.37;92.54;97214.56;5093572;28;20393;-71
2023/10/30 04:40:57;;;;;;;11.38;3.83;;;;;;;12.26;92.57;97202.22;5079953;28;20040;-71
2023/10/30 04:43:23;;;;;;;5.20;2.83;;;;;;;12.37;92.73;97216.44;5086115;28;20020;-71
2023/10/30 04:45:48;;;;;;;5.28;2.70;;;;;;;12.34;92.55;97204.34;5091132;28;20487;-71
2023/10/30 04:48:14;;;;;;;4.90;2.83;;;;;;;12.30;92.70;97197.84;5097938;28;20474;-71
2023/10/30 04:50:39;;;;;;;5.53;2.50;;;;;;;12.38;93.38;97205.38;5093428;28;20035;-72
2023/10/30 04:53:04;;;;;;;4.35;2.30;;;;;;;12.38;93.16;97193.75;5104613;28;20035;-70
2023/10/30 04:55:30;;;;;;;4.75;2.83;;;;;;;12.40;93.07;97197.81;5073017;28;20085;-71
2023/10/30 04:57:55;;;;;;;8.30;2.90;;;;;;;12.36;92.50;97198.66;5073014;28;20380;-72
2023/10/30 05:00:21;;;;;;;4.28;2.50;;;;;;;12.35;92.88;97199.72;5088819;28;20062;-69
2023/10/30 05:02:50;;;;;;;6.30;2.83;;;;;;;12.40;92.91;97192.41;5100872;28;20024;-70
2023/10/30 05:05:15;;;;;;;5.25;2.55;;;;;;;12.33;92.34;97186.50;5083637;28;20064;-70
2023/10/30 05:07:40;;;;;;;5.13;2.45;;;;;;;12.36;92.39;97196.75;5108271;28;20074;-70
2023/10/30 05:10:06;;;;;;;7.85;3.15;;;;;;;12.38;92.23;97199.97;5107598;28;20398;-71
2023/10/30 05:12:32;;;;;;;3.75;2.58;;;;;;;12.37;91.95;97192.94;5100916;28;20467;-70
2023/10/30 05:14:58;;;;;;;7.07;3.13;;;;;;;12.32;92.40;97192.97;5095912;28;20838;-71
2023/10/30 05:17:24;;;;;;;3.72;2.50;;;;;;;12.30;92.56;97181.66;5066469;28;20472;-71
2023/10/30 05:19:50;;;;;;;4.72;2.20;;;;;;;12.28;92.59;97183.84;5082770;28;20079;-69
2023/10/30 05:22:15;;;;;;;10.50;3.28;;;;;;;12.26;91.83;97180.63;5107796;28;20054;-70
2023/10/30 05:24:41;;;;;;;6.53;2.22;;;;;;;12.23;91.89;97164.97;5072169;28;20529;-69
2023/10/30 05:27:06;;;;;;;4.82;2.10;;;;;;;12.28;91.95;97178.44;5107732;28;20493;-70
2023/10/30 05:29:32;;;;;;;3.40;1.98;;;;;;;12.27;91.37;97171.44;5089466;28;20096;-71
2023/10/30 05:31:57;;;;;;;6.28;2.33;;;;;;;12.29;91.30;97182.75;5079370;28;20532;-70
2023/10/30 05:34:26;;;;;;;3.70;2.20;;;;;;;12.25;91.49;97178.97;5082585;28;20043;-70
2023/10/30 05:36:51;;;;;;;5.18;2.28;;;;;;;12.26;91.23;97180.63;5083348;28;20019;-69
2023/10/30 05:39:17;;;;;;;4.57;2.22;;;;;;;12.25;90.73;97191.69;5114518;28;20065;-71
2023/10/30 05:41:42;;;;;;;5.50;2.70;;;;;;;12.09;91.06;97174.78;5079284;28;20015;-70
2023/10/30 05:44:07;;;;;;;7.80;2.80;;;;;;;12.07;90.16;97182.34;5082668;28;20036;-70
2023/10/30 05:46:33;;;;;;;5.00;2.65;;;;;;;12.11;90.44;97186.09;5107482;28;20024;-70
2023/10/30 05:48:58;;;;;;;7.10;3.08;;;;;;;12.04;90.85;97177.50;5094503;28;20058;-70
2023/10/30 05:51:23;;;;;;;7.32;2.38;;;;;;;12.08;90.19;97183.97;5107690;28;20032;-70
2023/10/30 05:53:50;;;;;;;4.53;2.00;;;;;;;12.06;90.20;97188.84;5093135;28;20526;-71
2023/10/30 05:56:16;;;;;;;3.25;1.75;;;;;;;12.08;90.29;97193.94;5089346;28;20153;-70
2023/10/30 05:58:41;;;;;;;2.35;1.77;;;;;;;12.04;89.82;97190.97;5088170;28;20119;-72
2023/10/30 06:01:06;;;;;;;3.40;1.80;;;;;;;11.97;90.43;97193.19;5094236;28;20027;-71
2023/10/30 06:03:32;;;;;;;3.45;1.80;;;;;;;11.96;89.99;97206.97;5058037;28;20054;-71
2023/10/30 06:05:57;;;;;;;5.45;2.53;;;;;;;11.89;90.36;97211.84;5075108;28;20081;-70
2023/10/30 06:08:23;;;;;;;5.32;3.70;;;;;;;11.87;89.98;97209.44;5105874;28;20047;-71
2023/10/30 06:10:49;;;;;;;9.32;4.95;;;;;;;11.81;89.78;97183.53;5089395;28;20046;-72
2023/10/30 06:13:15;;;;;;;6.63;3.80;;;;;;;11.82;89.49;97195.97;5058306;28;20040;-71
2023/10/30 06:15:41;;;;;;;4.50;2.67;;;;;;;11.90;89.13;97213.47;5112920;28;20031;-71
2023/10/30 06:18:06;;;;;;;13.35;8.02;;;;;;;11.79;89.32;97208.09;5110795;28;20570;-70
2023/10/30 06:20:32;;;;;;;12.13;10.02;;;;;;;11.76;89.47;97219.44;5102486;28;20032;-71
2023/10/30 06:22:57;;;;;;;19.35;14.57;;;;;;;11.71;88.91;97227.56;5104093;28;20544;-71
2023/10/30 06:25:23;;;;;;;12.05;4.82;;;;;;;11.68;88.85;97216.53;5091214;28;20019;-72
2023/10/30 06:27:49;;;;;;;36.13;27.00;;;;;;;11.67;88.66;97226.50;5076002;28;20402;-72
2023/10/30 06:30:14;;;;;;;9.07;5.65;;;;;;;11.67;89.04;97236.44;5110732;28;20032;-72
2023/10/30 06:32:40;;;;;;;8.63;5.57;;;;;;;11.65;89.02;97222.41;5076356;28;20140;-72
2023/10/30 06:35:08;;;;;;;9.73;5.65;;;;;;;11.80;89.12;97235.91;5083813;28;20470;-72
2023/10/30 06:37:34;;;;;;;10.18;6.95;;;;;;;11.77;88.95;97236.44;5086358;28;20039;-72
2023/10/30 06:39:59;;;;;;;18.38;12.40;;;;;;;11.78;88.89;97243.47;5094960;28;20019;-73
2023/10/30 06:42:24;;;;;;;16.98;11.15;;;;;;;11.81;89.23;97245.59;5100205;28;20035;-73
2023/10/30 06:44:51;;;;;;;17.85;12.30;;;;;;;11.79;89.07;97237.78;5073933;28;20028;-72
2023/10/30 06:47:17;;;;;;;12.35;9.48;;;;;;;11.88;89.35;97253.41;5074639;28;20047;-72
2023/10/30 06:49:43;;;;;;;19.55;14.43;;;;;;;11.89;89.16;97265.81;5092352;28;20020;-72
2023/10/30 06:52:08;;;;;;;30.92;19.77;;;;;;;11.74;89.21;97280.94;5092319;28;20088;-72
2023/10/30 06:54:33;;;;;;;19.70;14.95;;;;;;;11.82;89.21;97271.50;5073819;28;20032;-73
2023/10/30 06:56:59;;;;;;;20.23;13.10;;;;;;;11.75;89.73;97244.81;5074233;28;20557;-73
2023/10/30 06:59:24;;;;;;;18.50;13.45;;;;;;;12.03;89.46;97269.53;5092323;28;20035;-72
2023/10/30 07:01:50;;;;;;;11.88;9.00;;;;;;;12.09;89.37;97266.53;5104798;28;20038;-72
2023/10/30 07:04:15;;;;;;;7.63;4.95;;;;;;;12.18;89.50;97264.88;5076915;28;20027;-72
2023/10/30 07:06:43;;;;;;;8.73;4.57;;;;;;;12.26;89.13;97256.19;5077252;28;20118;-72
2023/10/30 07:09:09;;;;;;;5.45;3.17;;;;;;;12.33;89.94;97255.88;5060763;28;20076;-72
2023/10/30 07:11:37;;;;;;;7.72;3.55;;;;;;;12.29;89.24;97239.47;5094095;28;20123;-72
2023/10/30 07:14:03;;;;;;;6.15;3.58;;;;;;;12.49;89.29;97260.94;5093636;28;20079;-72
2023/10/30 07:16:33;;;;;;;5.90;3.13;;;;;;;12.48;89.33;97253.91;5093834;28;20118;-72
2023/10/30 07:19:01;;;;;;;5.40;2.70;;;;;;;12.49;89.37;97244.72;5092905;28;20031;-72
2023/10/30 07:21:28;;;;;;;4.18;2.50;;;;;;;12.62;90.02;97261.41;5062764;28;20028;-71
2023/10/30 07:23:53;;;;;;;5.53;2.88;;;;;;;12.56;89.42;97265.19;5084044;28;20030;-71
2023/10/30 07:26:21;;;;;;;4.78;3.40;;;;;;;12.62;89.93;97283.00;5084063;28;20032;-71
2023/10/30 07:28:46;;;;;;;5.05;3.30;;;;;;;12.66;89.60;97278.66;5094226;28;20023;-71
2023/10/30 07:31:12;;;;;;;6.15;3.10;;;;;;;12.68;89.34;97273.78;5098232;28;20119;-70
2023/10/30 07:33:37;;;;;;;5.18;2.80;;;;;;;12.71;89.74;97278.63;5073921;28;20048;-71
2023/10/30 07:36:03;;;;;;;5.45;2.40;;;;;;;12.67;89.50;97256.75;5087168;28;20116;-72
2023/10/30 07:38:28;;;;;;;4.07;2.40;;;;;;;12.83;89.59;97265.56;5071305;28;20489;-72
2023/10/30 07:40:54;;;;;;;3.55;2.40;;;;;;;12.83;89.23;97265.56;5081055;28;20119;-71
2023/10/30 07:43:21;;;;;;;5.30;2.35;;;;;;;12.83;89.14;97270.97;5093569;28;20023;-71
2023/10/30 07:45:52;;;;;;;5.18;2.70;;;;;;;12.86;88.99;97273.91;5080213;28;20119;-71
2023/10/30 07:48:18;;;;;;;3.13;2.55;;;;;;;12.89;88.69;97276.06;5064942;28;20042;-71
2023/10/30 07:50:43;;;;;;;5.45;2.25;;;;;;;13.00;88.74;97266.78;5074270;28;20028;-70
2023/10/30 07:53:09;;;;;;;5.95;2.15;;;;;;;13.08;88.21;97258.13;5093380;28;20040;-71
2023/10/30 07:55:36;;;;;;;4.90;2.00;;;;;;;13.11;88.45;97257.56;5089631;28;20038;-71
2023/10/30 07:58:04;;;;;;;4.10;2.10;;;;;;;13.20;88.35;97254.22;5086121;28;20037;-71
2023/10/30 08:00:30;;;;;;;4.05;2.28;;;;;;;13.26;88.21;97250.38;5073369;28;20024;-71
2023/10/30 08:02:55;;;;;;;2.83;2.38;;;;;;;13.32;88.27;97252.78;5080903;28;20092;-71
2023/10/30 08:05:22;;;;;;;3.17;2.05;;;;;;;13.40;87.73;97238.63;5098062;28;20031;-71
2023/10/30 08:07:48;;;;;;;3.22;1.85;;;;;;;13.49;87.91;97252.34;5111440;28;20063;-71
2023/10/30 08:10:13;;;;;;;5.95;2.17;;;;;;;13.54;87.55;97250.38;5110314;28;20058;-72
2023/10/30 08:12:40;;;;;;;4.07;1.92;;;;;;;13.62;87.46;97254.34;5094408;28;20569;-72
2023/10/30 08:15:06;;;;;;;2.30;1.88;;;;;;;13.65;87.26;97257.28;5063141;28;20058;-71
2023/10/30 08:17:32;;;;;;;4.03;1.83;;;;;;;13.59;87.05;97244.91;5082530;28;20089;-71
2023/10/30 08:19:57;;;;;;;4.22;2.00;;;;;;;13.65;87.05;97241.03;5061796;28;20032;-71
2023/10/30 08:22:23;;;;;;;2.85;1.40;;;;;;;13.81;86.60;97261.47;5099724;28;20031;-71
2023/10/30 08:24:48;;;;;;;3.78;1.70;;;;;;;13.78;86.55;97245.78;5077851;28;20525;-71
2023/10/30 08:27:14;;;;;;;2.53;1.60;;;;;;;13.91;86.28;97265.16;5081328;28;20046;-71
2023/10/30 08:29:39;;;;;;;2.90;1.90;;;;;;;13.93;85.81;97262.94;5097548;28;20069;-71
2023/10/30 08:32:05;;;;;;;3.80;1.90;;;;;;;13.97;85.44;97258.56;5103431;28;20466;-71
2023/10/30 08:34:30;;;;;;;3.33;2.30;;;;;;;14.02;85.35;97247.69;5089561;28;20031;-71
2023/10/30 08:36:55;;;;;;;1.98;1.70;;;;;;;14.01;85.28;97240.63;5102727;28;20040;-71
2023/10/30 08:39:21;;;;;;;2.13;1.70;;;;;;;14.04;85.41;97242.78;5110288;28;20031;-71
2023/10/30 08:41:47;;;;;;;2.35;1.63;;;;;;;14.09;85.11;97250.84;5099245;28;20550;-69
2023/10/30 08:44:12;;;;;;;3.97;1.70;;;;;;;14.12;85.02;97244.84;5111413;28;20023;-71
2023/10/30 08:46:37;;;;;;;3.50;1.52;;;;;;;14.16;84.65;97235.06;5089454;28;20541;-71
2023/10/30 08:49:04;;;;;;;2.22;1.45;;;;;;;14.16;84.60;97230.44;5089927;28;20016;-71
2023/10/30 08:51:29;;;;;;;3.42;1.48;;;;;;;14.22;84.17;97233.88;5102276;28;20115;-71
2023/10/30 08:53:55;;;;;;;2.28;1.40;;;;;;;14.23;83.94;97227.38;5095272;28;20573;-71
2023/10/30 08:56:20;;;;;;;2.95;1.33;;;;;;;14.24;83.35;97231.69;5067263;28;20039;-71
2023/10/30 08:58:46;;;;;;;3.03;1.60;;;;;;;14.29;83.07;97239.75;5114708;28;20027;-71
2023/10/30 09:01:12;;;;;;;2.65;1.20;;;;;;;14.24;82.64;97220.84;5094591;28;20036;-71
2023/10/30 09:03:42;;;;;;;2.63;1.40;;;;;;;14.35;82.17;97222.38;5089516;28;20030;-72
2023/10/30 09:06:08;;;;;;;2.35;1.40;;;;;;;14.41;82.41;97226.59;5102188;28;20024;-71
2023/10/30 09:08:34;;;;;;;3.15;1.50;;;;;;;14.47;82.38;97214.59;5082136;28;20042;-72
2023/10/30 09:10:59;;;;;;;3.75;1.50;;;;;;;14.44;81.95;97198.94;5076316;28;20070;-71
2023/10/30 09:13:24;;;;;;;2.22;1.30;;;;;;;14.52;81.93;97200.97;5090176;28;20035;-71
2023/10/30 09:15:50;;;;;;;1.67;1.50;;;;;;;14.57;81.78;97197.38;5106869;28;20105;-70
2023/10/30 09:18:16;;;;;;;1.95;1.50;;;;;;;14.57;81.30;97197.38;5108244;28;20073;-72
2023/10/30 09:20:41;;;;;;;3.22;1.35;;;;;;;14.64;80.80;97190.50;5096371;28;20118;-71
2023/10/30 09:23:07;;;;;;;2.00;1.20;;;;;;;14.70;80.38;97185.81;5081798;28;20024;-71
2023/10/30 09:25:32;;;;;;;2.03;1.20;;;;;;;14.73;80.38;97185.19;5101506;28;20045;-71
2023/10/30 09:27:58;;;;;;;1.20;1.10;;;;;;;14.77;79.37;97184.31;5081996;28;20046;-71
2023/10/30 09:30:29;;;;;;;1.63;1.30;;;;;;;14.78;79.01;97187.84;5094083;28;20077;-71
2023/10/30 09:32:55;;;;;;;2.22;1.60;;;;;;;14.75;78.94;97178.38;5107169;28;20388;-71
2023/10/30 09:35:21;;;;;;;9.05;3.60;;;;;;;14.78;78.57;97161.53;5083810;28;20023;-71
2023/10/30 09:37:46;;;;;;;4.88;3.00;;;;;;;14.88;78.55;97160.56;5079207;28;20042;-71
2023/10/30 09:40:12;;;;;;;4.53;2.30;;;;;;;14.90;78.27;97156.47;5114237;28;20027;-71
2023/10/30 09:42:53;;;;;;;2.42;2.03;;;;;;;14.92;77.84;97159.69;5100290;28;20032;-71
2023/10/30 09:45:26;;;;;;;1.70;1.15;;;;;;;15.01;77.88;97159.78;5085066;28;20058;-71
2023/10/30 09:47:55;;;;;;;3.17;1.80;;;;;;;15.02;78.05;97156.81;5079995;28;20052;-71
2023/10/30 09:50:22;;;;;;;3.72;1.48;;;;;;;15.07;77.69;97153.19;5067509;28;20075;-71
2023/10/30 09:52:49;;;;;;;4.38;1.60;;;;;;;15.12;77.71;97151.19;5080391;28;20039;-71
2023/10/30 09:55:19;;;;;;;3.22;1.30;;;;;;;15.12;77.10;97145.75;5095567;28;20076;-71
2023/10/30 09:57:47;;;;;;;4.20;1.40;;;;;;;15.22;77.14;97148.28;5081775;28;20425;-71
2023/10/30 10:00:13;;;;;;;4.80;1.15;;;;;;;15.27;77.30;97152.00;5082901;28;20035;-71
2023/10/30 10:02:42;;;;;;;2.03;1.20;;;;;;;15.28;76.99;97145.50;5088728;28;20116;-72
2023/10/30 10:05:09;;;;;;;2.00;1.33;;;;;;;15.38;76.74;97148.03;5088480;28;20032;-71
2023/10/30 10:07:35;;;;;;;3.72;1.52;;;;;;;15.39;76.21;97155.84;5106793;28;20062;-71
2023/10/30 10:10:04;;;;;;;2.85;1.00;;;;;;;15.41;75.97;97152.81;5088597;28;20031;-71
2023/10/30 10:12:31;;;;;;;2.00;0.88;;;;;;;15.49;75.96;97149.44;5082795;28;20035;-71
2023/10/30 10:14:57;;;;;;;3.65;1.10;;;;;;;15.58;76.22;97148.44;5093788;28;20036;-72
2023/10/30 10:17:23;;;;;;;1.98;1.50;;;;;;;15.66;76.07;97153.16;5100037;28;20031;-72
2023/10/30 10:19:49;;;;;;;2.30;1.00;;;;;;;15.70;75.79;97158.81;5081351;28;20027;-71
2023/10/30 10:22:31;;;;;;;2.10;1.50;;;;;;;15.67;73.32;97156.69;5081846;28;20026;-71
2023/10/30 10:24:56;;;;;;;3.40;1.20;;;;;;;15.67;73.84;97143.91;5078736;28;20036;-71
2023/10/30 10:27:23;;;;;;;2.03;0.80;;;;;;;15.79;73.25;97146.13;5083541;28;20019;-71
2023/10/30 10:29:55;;;;;;;2.15;1.20;;;;;;;15.87;73.36;97148.09;5079004;28;20118;-71
2023/10/30 10:32:28;;;;;;;2.90;1.33;;;;;;;15.93;73.44;97149.63;5074914;28;20093;-71
2023/10/30 10:34:58;;;;;;;2.20;1.00;;;;;;;15.96;72.82;97135.44;5101164;28;20039;-71
2023/10/30 10:37:24;;;;;;;1.35;0.90;;;;;;;15.92;72.33;97123.56;5086062;28;20035;-71
2023/10/30 10:39:53;;;;;;;3.45;1.00;;;;;;;15.99;72.44;97115.81;5080905;28;20029;-71
2023/10/30 10:42:23;;;;;;;1.38;0.90;;;;;;;16.09;71.92;97129.19;5085004;28;20035;-71
2023/10/30 10:44:51;;;;;;;2.00;0.77;;;;;;;16.07;71.74;97106.94;5101277;28;20036;-71
2023/10/30 10:47:18;;;;;;;2.88;0.90;;;;;;;16.14;71.68;97112.78;5102009;28;20020;-71
2023/10/30 10:49:43;;;;;;;1.10;0.80;;;;;;;16.26;71.89;97117.66;5080140;28;20032;-71
2023/10/30 10:52:10;;;;;;;2.58;0.90;;;;;;;16.32;71.85;97109.09;5063607;28;20035;-71
2023/10/30 10:54:43;;;;;;;2.05;1.20;;;;;;;16.36;71.25;97103.84;5101495;28;20068;-71
2023/10/30 10:57:08;;;;;;;1.15;0.93;;;;;;;16.41;71.24;97101.78;5104260;28;20572;-71
2023/10/30 10:59:35;;;;;;;2.00;0.98;;;;;;;16.47;70.75;97103.28;5089773;28;20020;-71
2023/10/30 11:02:02;;;;;;;3.03;1.05;;;;;;;16.50;70.63;97097.22;5088588;28;20149;-71
2023/10/30 11:04:29;;;;;;;1.38;0.90;;;;;;;16.66;70.84;97091.44;5065062;28;20031;-71
2023/10/30 11:07:02;;;;;;;2.83;1.40;;;;;;;16.67;70.77;97076.72;5071387;28;20609;-71
2023/10/30 11:09:42;;;;;;;2.38;1.10;;;;;;;16.47;70.69;97054.38;5080855;28;20031;-71
2023/10/30 11:12:17;;;;;;;1.40;0.82;;;;;;;16.77;70.44;97087.34;5085184;28;20475;-71
2023/10/30 11:14:54;;;;;;;1.63;1.40;;;;;;;16.72;70.86;97073.88;5108466;28;20053;-71
2023/10/30 11:17:20;;;;;;;1.15;0.73;;;;;;;16.90;70.70;97086.47;5083991;28;20390;-71
2023/10/30 11:19:46;;;;;;;2.28;1.00;;;;;;;16.82;70.71;97085.31;5077133;28;20035;-71
2023/10/30 11:22:11;;;;;;;1.98;0.85;;;;;;;16.98;69.87;97074.84;5080511;28;20031;-71
2023/10/30 11:24:38;;;;;;;1.75;0.88;;;;;;;17.16;69.49;97090.94;5080520;28;20050;-71
2023/10/30 11:27:26;;;;;;;1.48;0.90;;;;;;;17.28;69.85;97082.16;5076151;28;20044;-70